Time;durP1;ratioP1;P1;durP2;ratioP2;P2;SDS_P1;SDS_P2;PMS_P1;PMS_P2;Temp;Humidity;BMP_temperature;BMP_pressure;BME280_temperature;BME280_humidity;BME280_pressure;Samples;Min_cycle;Max_cycle;Signal;HPM_P1;HPM_P2
2022/04/25 00:00:21;;;;;;;0.40;0.40;;;;;;;8.66;95.89;98612.00;5112023;28;20078;-80
2022/04/25 00:02:50;;;;;;;0.40;0.40;;;;;;;8.71;95.85;98607.75;5112344;28;20040;-80
2022/04/25 00:05:17;;;;;;;0.40;0.40;;;;;;;8.68;95.99;98615.25;5111828;28;20057;-81
2022/04/25 00:07:44;;;;;;;0.40;0.40;;;;;;;8.71;95.74;98607.75;5112530;28;20051;-79
2022/04/25 00:10:13;;;;;;;0.40;0.40;;;;;;;8.67;95.87;98610.09;5113140;28;20070;-80
2022/04/25 00:12:42;;;;;;;0.40;0.40;;;;;;;8.61;95.60;98614.59;5077618;28;20051;-80
2022/04/25 00:15:11;;;;;;;0.45;0.45;;;;;;;8.58;95.85;98622.31;5111923;28;20465;-80
2022/04/25 00:17:38;;;;;;;0.40;0.40;;;;;;;8.54;95.97;98613.91;5111905;28;20051;-80
2022/04/25 00:20:07;;;;;;;0.40;0.40;;;;;;;8.50;96.10;98617.31;5093820;28;20047;-80
2022/04/25 00:22:35;;;;;;;0.50;0.50;;;;;;;8.49;96.42;98615.69;5111321;28;20083;-79
2022/04/25 00:25:04;;;;;;;0.40;0.40;;;;;;;8.47;96.62;98610.53;5111222;28;20059;-79
2022/04/25 00:27:31;;;;;;;0.40;0.40;;;;;;;8.51;96.70;98614.41;5114045;28;20055;-80
2022/04/25 00:29:59;;;;;;;0.40;0.40;;;;;;;8.50;96.53;98607.38;5115470;28;20060;-80
2022/04/25 00:32:25;;;;;;;0.40;0.40;;;;;;;8.51;96.65;98617.09;5115591;28;20110;-79
2022/04/25 00:34:53;;;;;;;0.45;0.45;;;;;;;8.53;96.72;98619.53;5116303;28;20047;-79
2022/04/25 00:37:20;;;;;;;0.40;0.40;;;;;;;8.54;96.54;98616.59;5115179;28;20047;-79
2022/04/25 00:39:47;;;;;;;0.50;0.50;;;;;;;8.55;96.56;98612.84;5097083;28;20039;-80
2022/04/25 00:42:15;;;;;;;0.40;0.40;;;;;;;8.50;96.40;98612.75;5115352;28;20417;-79
2022/04/25 00:44:42;;;;;;;0.40;0.40;;;;;;;8.49;96.69;98604.94;5096865;28;20104;-78
2022/04/25 00:47:10;;;;;;;0.40;0.40;;;;;;;8.48;96.58;98614.84;5115311;28;20463;-79
2022/04/25 00:49:37;;;;;;;0.43;0.43;;;;;;;8.46;96.84;98607.03;5062799;28;20044;-79
2022/04/25 00:52:05;;;;;;;0.50;0.50;;;;;;;8.43;96.70;98607.53;5115115;28;20055;-79
2022/04/25 00:54:37;;;;;;;0.40;0.40;;;;;;;8.45;96.82;98618.03;5114938;28;20070;-79
2022/04/25 00:57:04;;;;;;;0.50;0.50;;;;;;;8.47;96.85;98613.25;5114739;28;20063;-79
2022/04/25 00:59:31;;;;;;;0.40;0.40;;;;;;;8.50;96.97;98617.31;5114514;28;20097;-78
2022/04/25 01:01:58;;;;;;;0.40;0.40;;;;;;;8.49;96.72;98618.38;5080010;28;20043;-78
2022/04/25 01:04:26;;;;;;;0.45;0.45;;;;;;;8.49;96.61;98623.75;5114291;28;20079;-80
2022/04/25 01:06:56;;;;;;;0.40;0.40;;;;;;;8.46;96.56;98622.38;5096803;28;20059;-79
2022/04/25 01:09:25;;;;;;;0.40;0.40;;;;;;;8.46;96.58;98633.13;5114626;28;20089;-80
2022/04/25 01:11:52;;;;;;;0.40;0.40;;;;;;;8.41;96.65;98638.41;5114779;28;20502;-79
2022/04/25 01:14:20;;;;;;;0.40;0.40;;;;;;;8.39;96.46;98638.63;5114364;28;20513;-79
2022/04/25 01:16:48;;;;;;;0.40;0.40;;;;;;;8.36;96.43;98628.34;5096978;28;20434;-79
2022/04/25 01:19:15;;;;;;;0.47;0.47;;;;;;;8.34;95.92;98637.69;5096212;28;20043;-79
2022/04/25 01:21:45;;;;;;;0.40;0.40;;;;;;;8.31;96.16;98630.13;5114556;28;20050;-79
2022/04/25 01:27:16;;;;;;;0.40;0.40;;;;;;;8.20;96.28;98629.91;5082028;28;20647;-80
2022/04/25 01:29:43;;;;;;;;;;;;;;;8.11;96.49;98631.31;5114764;28;20144;-80
2022/04/25 01:32:12;;;;;;;0.40;0.40;;;;;;;8.03;96.68;98620.94;5114305;28;20068;-79
2022/04/25 01:34:39;;;;;;;0.40;0.40;;;;;;;7.91;96.73;98618.28;5114238;28;20660;-78
2022/04/25 01:37:08;;;;;;;0.40;0.40;;;;;;;7.84;97.37;98612.22;5114145;28;20516;-79
2022/04/25 01:39:37;;;;;;;0.40;0.40;;;;;;;7.86;97.94;98617.38;5095868;28;20410;-80
2022/04/25 01:42:05;;;;;;;0.40;0.40;;;;;;;7.90;97.91;98618.50;5096271;28;20048;-80
2022/04/25 01:44:33;;;;;;;0.47;0.47;;;;;;;7.95;97.85;98621.28;5122318;27;20043;-79
2022/04/25 01:47:02;;;;;;;0.40;0.40;;;;;;;7.98;98.05;98627.03;5135350;27;20051;-79
2022/04/25 01:49:29;;;;;;;0.50;0.50;;;;;;;8.00;97.91;98630.31;5116614;27;20043;-79
2022/04/25 01:51:56;;;;;;;0.50;0.50;;;;;;;8.04;97.70;98622.56;5130882;27;20077;-78
2022/04/25 01:54:27;;;;;;;0.50;0.50;;;;;;;8.07;97.43;98622.09;5115459;27;20051;-78
2022/04/25 01:56:55;;;;;;;0.40;0.40;;;;;;;8.08;97.07;98623.75;5134462;27;20051;-77
2022/04/25 01:59:23;;;;;;;0.40;0.40;;;;;;;8.06;97.00;98617.78;5115509;27;20061;-77
2022/04/25 02:01:51;;;;;;;0.40;0.40;;;;;;;8.06;96.73;98612.41;5116456;27;20074;-78
2022/04/25 02:04:19;;;;;;;0.47;0.47;;;;;;;8.07;96.45;98616.72;5113887;27;20484;-78
2022/04/25 02:06:47;;;;;;;0.50;0.50;;;;;;;8.10;96.44;98608.19;5116126;27;20051;-80
2022/04/25 02:09:14;;;;;;;0.50;0.50;;;;;;;8.11;96.53;98617.06;5123990;27;20023;-80
2022/04/25 02:11:41;;;;;;;0.40;0.40;;;;;;;8.14;96.26;98614.72;5156636;27;20047;-79
2022/04/25 02:14:08;;;;;;;0.40;0.40;;;;;;;8.15;95.94;98620.91;5150022;27;20146;-79
2022/04/25 02:16:35;;;;;;;0.40;0.40;;;;;;;8.14;95.21;98620.09;5117974;27;20458;-80
2022/04/25 02:19:02;;;;;;;0.40;0.40;;;;;;;8.15;95.28;98629.81;5136240;27;20043;-79
2022/04/25 02:21:30;;;;;;;0.50;0.50;;;;;;;8.13;95.11;98631.09;5133417;27;20054;-80
2022/04/25 02:23:57;;;;;;;0.40;0.40;;;;;;;8.10;95.15;98629.72;5133413;27;20138;-80
2022/04/25 02:26:24;;;;;;;0.40;0.40;;;;;;;8.09;95.06;98628.06;5133016;27;20055;-79
2022/04/25 02:28:54;;;;;;;0.40;0.40;;;;;;;8.12;95.31;98632.94;5133463;27;20404;-80
2022/04/25 02:31:22;;;;;;;0.50;0.50;;;;;;;8.13;95.23;98633.78;5132737;27;20057;-79
2022/04/25 02:33:50;;;;;;;0.50;0.50;;;;;;;8.12;95.14;98641.00;5132831;27;20046;-80
2022/04/25 02:36:18;;;;;;;0.43;0.43;;;;;;;8.10;95.42;98640.47;5133044;27;20043;-80
2022/04/25 02:38:45;;;;;;;0.40;0.40;;;;;;;8.05;95.47;98637.63;5133439;27;20043;-78
2022/04/25 02:41:12;;;;;;;0.50;0.50;;;;;;;7.96;95.74;98637.19;5133040;27;20107;-79
2022/04/25 02:43:41;;;;;;;0.40;0.40;;;;;;;7.95;96.14;98648.16;5132783;27;20142;-80
2022/04/25 02:46:13;;;;;;;0.40;0.40;;;;;;;7.96;96.39;98642.56;5132809;27;20051;-79
2022/04/25 02:48:42;;;;;;;0.40;0.40;;;;;;;7.95;96.34;98642.78;5132576;27;20055;-79
2022/04/25 02:51:11;;;;;;;0.50;0.50;;;;;;;7.99;96.54;98662.78;5131758;27;20123;-79
2022/04/25 02:53:39;;;;;;;0.50;0.50;;;;;;;8.03;96.54;98655.88;5114165;27;20096;-79
2022/04/25 02:56:06;;;;;;;0.50;0.50;;;;;;;8.03;96.26;98653.19;5114064;27;20100;-79
2022/04/25 02:58:35;;;;;;;0.40;0.40;;;;;;;8.03;96.15;98661.25;5132168;27;20062;-79
2022/04/25 03:01:05;;;;;;;0.40;0.40;;;;;;;8.02;96.11;98654.25;5132338;27;20047;-80
2022/04/25 03:03:34;;;;;;;0.50;0.50;;;;;;;8.03;95.98;98645.13;5132480;27;20058;-81
2022/04/25 03:06:04;;;;;;;0.50;0.50;;;;;;;8.07;95.92;98643.59;5132517;27;20135;-79
2022/04/25 03:08:34;;;;;;;0.40;0.40;;;;;;;8.12;95.80;98649.06;5097509;27;20108;-81
2022/04/25 03:11:08;;;;;;;0.43;0.43;;;;;;;8.12;95.43;98643.69;5132375;27;20080;-79
2022/04/25 03:13:36;;;;;;;0.50;0.50;;;;;;;8.11;95.33;98652.81;5114336;27;20061;-80
2022/04/25 03:16:04;;;;;;;0.40;0.40;;;;;;;8.15;95.39;98653.16;5132773;27;20050;-81
2022/04/25 03:18:32;;;;;;;0.47;0.47;;;;;;;8.19;95.19;98655.16;5113389;27;20107;-80
2022/04/25 03:21:01;;;;;;;0.50;0.50;;;;;;;8.25;94.87;98648.84;5132162;27;20683;-80
2022/04/25 03:23:28;;;;;;;0.50;0.50;;;;;;;8.31;94.49;98651.63;5131939;27;20051;-81
2022/04/25 03:25:56;;;;;;;0.50;0.50;;;;;;;8.34;94.10;98646.56;5113658;27;20077;-81
2022/04/25 03:28:23;;;;;;;0.50;0.50;;;;;;;8.30;94.07;98653.47;5131834;27;20134;-81
2022/04/25 03:30:50;;;;;;;0.47;0.47;;;;;;;8.28;93.79;98654.75;5113798;28;20077;-81
2022/04/25 03:33:19;;;;;;;0.50;0.50;;;;;;;8.27;93.84;98645.88;5131746;28;20054;-81
2022/04/25 03:35:48;;;;;;;0.50;0.50;;;;;;;8.33;94.10;98650.31;5132937;28;20043;-79
2022/04/25 03:38:17;;;;;;;0.50;0.50;;;;;;;8.33;93.26;98649.50;5114112;28;20121;-79
2022/04/25 03:40:45;;;;;;;0.50;0.50;;;;;;;8.17;92.98;98649.19;5132408;28;20107;-80
2022/04/25 03:43:14;;;;;;;0.50;0.50;;;;;;;8.12;92.79;98649.06;5114021;28;20058;-80
2022/04/25 03:45:43;;;;;;;0.50;0.50;;;;;;;8.10;92.46;98651.22;5131856;28;20047;-80
2022/04/25 03:48:10;;;;;;;0.50;0.50;;;;;;;8.07;92.09;98648.16;5135621;27;20089;-81
2022/04/25 03:50:38;;;;;;;0.50;0.50;;;;;;;8.10;92.31;98651.22;5132152;28;20051;-80
2022/04/25 03:53:07;;;;;;;0.50;0.50;;;;;;;8.13;92.08;98639.97;5133262;28;20454;-79
2022/04/25 03:58:21;;;;;;;0.50;0.50;;;;;;;8.40;90.61;98645.63;5126752;28;20048;-78
2022/04/25 04:00:49;;;;;;;0.50;0.50;;;;;;;8.55;89.44;98636.25;5099353;27;20048;-79
2022/04/25 04:03:18;;;;;;;0.50;0.50;;;;;;;8.72;89.14;98630.91;5118255;27;20091;-81
2022/04/25 04:05:46;;;;;;;0.50;0.50;;;;;;;8.79;88.48;98629.69;5129504;27;20092;-80
2022/04/25 04:08:14;;;;;;;0.50;0.50;;;;;;;8.85;88.08;98625.22;5114324;27;20147;-80
2022/04/25 04:10:41;;;;;;;0.50;0.50;;;;;;;8.87;87.47;98628.50;5102178;27;20096;-81
2022/04/25 04:13:09;;;;;;;0.50;0.50;;;;;;;8.98;86.97;98626.78;5127002;27;20589;-80
2022/04/25 04:15:36;;;;;;;0.50;0.50;;;;;;;9.13;86.22;98632.44;5119243;27;20047;-78
2022/04/25 04:18:06;;;;;;;0.50;0.50;;;;;;;8.97;85.22;98628.66;5115196;28;20428;-80
2022/04/25 04:20:34;;;;;;;0.50;0.50;;;;;;;8.76;85.07;98632.03;5114356;28;20093;-80
2022/04/25 04:23:01;;;;;;;0.50;0.50;;;;;;;8.62;84.90;98632.34;5116934;27;20047;-79
2022/04/25 04:25:29;;;;;;;0.50;0.50;;;;;;;8.61;85.12;98633.41;5118670;27;20078;-81
2022/04/25 04:27:57;;;;;;;0.43;0.43;;;;;;;8.67;85.22;98632.44;5126873;27;20093;-81
2022/04/25 04:30:24;;;;;;;0.50;0.50;;;;;;;8.70;85.00;98633.03;5102399;27;20120;-83
2022/04/25 04:32:52;;;;;;;0.50;0.50;;;;;;;8.63;84.66;98633.16;5099594;27;20051;-81
2022/04/25 04:38:06;;;;;;;0.47;0.47;;;;;;;8.56;83.44;98627.94;5131975;27;20517;-81
2022/04/25 04:40:34;;;;;;;0.50;0.50;;;;;;;8.62;83.50;98631.53;5116566;27;20051;-82
2022/04/25 04:43:02;;;;;;;0.50;0.50;;;;;;;8.72;82.41;98620.97;5111653;28;20056;-81
2022/04/25 04:45:29;;;;;;;0.50;0.50;;;;;;;9.01;81.88;98624.41;5110760;28;20475;-80
2022/04/25 04:47:56;;;;;;;0.50;0.50;;;;;;;9.28;80.57;98632.66;5111556;27;20518;-82
2022/04/25 04:50:24;;;;;;;0.43;0.43;;;;;;;9.45;79.89;98643.44;5110189;28;20050;-82
2022/04/25 04:52:59;;;;;;;0.50;0.50;;;;;;;9.57;78.98;98639.84;5115268;27;20138;-82
2022/04/25 04:55:27;;;;;;;0.40;0.40;;;;;;;9.66;78.24;98636.47;5105515;27;20054;-83
2022/04/25 04:57:55;;;;;;;0.50;0.50;;;;;;;9.72;78.12;98631.97;5100010;28;20051;-82
2022/04/25 05:00:23;;;;;;;0.50;0.50;;;;;;;9.73;77.71;98629.03;5113162;27;20043;-81
2022/04/25 05:02:51;;;;;;;0.50;0.50;;;;;;;9.81;76.88;98640.47;5122201;27;20140;-83
2022/04/25 05:05:19;;;;;;;0.50;0.50;;;;;;;9.95;76.00;98644.41;5092848;28;20039;-81
2022/04/25 05:07:47;;;;;;;0.50;0.50;;;;;;;9.92;75.43;98634.94;5075438;28;20486;-81
2022/04/25 05:10:15;;;;;;;0.50;0.50;;;;;;;9.88;75.50;98644.63;5110678;28;20146;-82
2022/04/25 05:12:46;;;;;;;0.50;0.50;;;;;;;9.87;75.43;98652.94;5117496;27;20409;-81
2022/04/25 05:15:14;;;;;;;0.50;0.50;;;;;;;9.82;75.60;98650.16;5120176;27;20111;-81
2022/04/25 05:17:42;;;;;;;0.50;0.50;;;;;;;9.93;76.03;98658.16;5096353;27;20047;-82
2022/04/25 05:20:11;;;;;;;0.50;0.50;;;;;;;10.07;75.81;98658.59;5112220;27;20398;-83
2022/04/25 05:22:44;;;;;;;0.50;0.50;;;;;;;10.20;75.28;98665.50;5123184;27;20062;-83
2022/04/25 05:25:14;;;;;;;0.50;0.50;;;;;;;10.12;75.71;98665.94;5110928;28;20422;-83
2022/04/25 05:27:46;;;;;;;0.50;0.50;;;;;;;9.93;76.79;98660.84;5117412;27;20059;-84
2022/04/25 05:30:15;;;;;;;0.50;0.50;;;;;;;9.64;76.90;98662.84;5125248;27;20043;-81
2022/04/25 05:32:47;;;;;;;0.40;0.40;;;;;;;9.47;77.24;98673.66;5117037;27;20206;-82
2022/04/25 05:35:18;;;;;;;0.47;0.47;;;;;;;9.49;77.43;98671.50;5095036;27;20513;-84
2022/04/25 05:37:46;;;;;;;0.50;0.50;;;;;;;9.62;76.99;98667.69;5081782;28;20036;-83
2022/04/25 05:40:15;;;;;;;0.40;0.40;;;;;;;9.55;77.14;98661.66;5065380;27;20050;-82
2022/04/25 05:42:45;;;;;;;0.50;0.50;;;;;;;9.59;77.39;98664.66;5113533;27;20637;-81
2022/04/25 05:45:16;;;;;;;0.50;0.50;;;;;;;9.55;77.10;98677.81;5110837;28;20070;-80
2022/04/25 05:47:44;;;;;;;0.50;0.50;;;;;;;9.51;77.14;98680.16;5074358;28;20198;-82
2022/04/25 05:53:00;;;;;;;0.50;0.50;;;;;;;9.57;77.10;98678.38;5101916;27;20452;-80
2022/04/25 05:55:28;;;;;;;0.50;0.50;;;;;;;9.65;77.30;98680.66;5110517;28;20506;-82
2022/04/25 05:57:57;;;;;;;0.50;0.50;;;;;;;9.87;76.40;98677.19;5093354;28;20402;-82
2022/04/25 06:00:26;;;;;;;0.50;0.50;;;;;;;10.11;75.48;98675.13;5109166;28;20097;-82
2022/04/25 06:02:55;;;;;;;0.50;0.50;;;;;;;10.27;74.02;98676.13;5092918;28;20047;-85
2022/04/25 06:05:22;;;;;;;0.50;0.50;;;;;;;10.20;74.32;98669.03;5110544;28;20048;-84
2022/04/25 06:07:50;;;;;;;0.60;0.60;;;;;;;10.55;73.67;98673.25;5091371;28;20051;-83
2022/04/25 06:10:19;;;;;;;0.50;0.50;;;;;;;10.81;72.25;98668.97;5086055;28;20052;-82
2022/04/25 06:12:48;;;;;;;0.50;0.50;;;;;;;10.91;71.94;98670.94;5091038;28;20117;-85
2022/04/25 06:15:16;;;;;;;0.50;0.50;;;;;;;11.02;72.03;98674.56;5110818;28;20043;-84
2022/04/25 06:17:54;;;;;;;0.50;0.50;;;;;;;11.27;71.21;98676.69;5092746;28;20055;-81
2022/04/25 06:20:23;;;;;;;0.50;0.50;;;;;;;11.21;70.65;98667.72;5091434;28;20059;-84
2022/04/25 06:22:57;;;;;;;0.50;0.50;;;;;;;11.02;71.20;98663.75;5082605;28;20506;-82
2022/04/25 06:25:29;;;;;;;0.50;0.50;;;;;;;10.75;71.27;98648.38;5091641;28;20062;-81
2022/04/25 06:28:00;;;;;;;0.50;0.50;;;;;;;10.72;72.27;98653.47;5092564;28;20080;-81
2022/04/25 06:30:29;;;;;;;0.50;0.50;;;;;;;10.67;72.92;98642.63;5104066;28;20052;-84
2022/04/25 06:32:58;;;;;;;0.50;0.50;;;;;;;10.89;72.12;98642.56;5101523;28;20047;-83
2022/04/25 06:35:26;;;;;;;0.50;0.50;;;;;;;11.02;71.66;98642.97;5075164;28;20706;-84
2022/04/25 06:37:53;;;;;;;0.50;0.50;;;;;;;11.18;71.21;98630.41;5099875;28;20462;-82
2022/04/25 06:40:21;;;;;;;0.50;0.50;;;;;;;11.28;70.45;98629.69;5081985;28;20112;-83
2022/04/25 06:42:49;;;;;;;0.50;0.50;;;;;;;11.28;70.74;98625.09;5101433;28;20047;-80
2022/04/25 06:45:16;;;;;;;0.50;0.50;;;;;;;11.38;70.62;98621.66;5114885;28;20146;-81
2022/04/25 06:47:44;;;;;;;0.60;0.60;;;;;;;11.60;69.72;98610.72;5105148;28;20501;-83
2022/04/25 06:50:11;;;;;;;0.60;0.60;;;;;;;11.76;68.47;98614.34;5096908;28;20040;-82
2022/04/25 06:52:39;;;;;;;0.50;0.50;;;;;;;11.69;68.17;98614.56;5096999;28;20044;-83
2022/04/25 06:55:11;;;;;;;0.50;0.50;;;;;;;11.65;68.13;98620.78;5091491;28;20200;-82
2022/04/25 06:57:39;;;;;;;0.50;0.50;;;;;;;11.75;67.67;98614.59;5084360;28;20044;-82
2022/04/25 07:00:11;;;;;;;0.50;0.50;;;;;;;11.85;67.42;98615.47;5107788;28;20071;-82
2022/04/25 07:02:59;;;;;;;0.50;0.50;;;;;;;11.69;68.04;98630.78;5101049;28;20037;-82
2022/04/25 07:05:26;;;;;;;0.50;0.50;;;;;;;11.49;68.17;98626.06;5105795;28;20052;-81
2022/04/25 07:07:53;;;;;;;0.60;0.60;;;;;;;11.83;68.06;98616.81;5092495;28;20079;-82
2022/04/25 07:10:20;;;;;;;0.50;0.50;;;;;;;12.07;66.59;98604.50;5083774;28;20048;-81
2022/04/25 07:12:48;;;;;;;0.50;0.50;;;;;;;12.32;64.87;98601.09;5105724;28;20425;-82
2022/04/25 07:15:15;;;;;;;0.60;0.60;;;;;;;12.51;64.75;98609.56;5100437;28;20658;-82
2022/04/25 07:17:42;;;;;;;0.50;0.50;;;;;;;12.67;64.20;98623.94;5095919;28;20071;-81
2022/04/25 07:20:09;;;;;;;0.50;0.50;;;;;;;12.73;64.08;98630.16;5095932;28;20406;-82
2022/04/25 07:30:54;;;;;;;0.60;0.60;;;;;;;12.52;64.36;98624.69;5090204;28;20078;-82
2022/04/25 07:33:21;;;;;;;0.40;0.40;;;;;;;12.66;64.49;98618.78;5116108;28;20055;-82
2022/04/25 07:35:49;;;;;;;0.60;0.60;;;;;;;12.63;63.52;98617.41;5049062;28;20048;-84
2022/04/25 07:38:17;;;;;;;0.50;0.50;;;;;;;12.90;62.61;98606.38;5098241;28;20162;-82
2022/04/25 07:40:44;;;;;;;0.50;0.50;;;;;;;13.12;62.37;98591.75;5090091;28;20040;-82
2022/04/25 07:43:11;;;;;;;0.50;0.50;;;;;;;12.94;60.73;98603.94;5110295;28;20051;-82
2022/04/25 07:45:39;;;;;;;0.50;0.50;;;;;;;12.89;60.91;98602.03;5110094;28;20082;-83
2022/04/25 07:48:07;;;;;;;0.50;0.50;;;;;;;12.95;60.88;98605.56;5090826;28;20043;-83
2022/04/25 07:50:34;;;;;;;0.60;0.60;;;;;;;13.18;60.32;98601.50;5101700;28;20054;-83
2022/04/25 07:53:01;;;;;;;0.60;0.60;;;;;;;13.27;61.00;98604.50;5059440;28;20079;-82
2022/04/25 07:55:28;;;;;;;0.55;0.55;;;;;;;13.54;60.54;98609.63;5088640;28;20216;-83
2022/04/25 07:58:02;;;;;;;0.53;0.53;;;;;;;13.83;59.18;98605.25;4971572;28;10000517;-82
2022/04/25 08:00:29;;;;;;;0.57;0.57;;;;;;;13.84;58.89;98589.78;5073387;28;20274;-83
2022/04/25 08:02:56;;;;;;;0.55;0.55;;;;;;;13.91;58.65;98598.44;5088702;28;20447;-84
2022/04/25 08:05:25;;;;;;;0.60;0.60;;;;;;;14.07;58.34;98594.56;5069334;28;20044;-82
2022/04/25 08:07:52;;;;;;;0.60;0.60;;;;;;;14.38;57.82;98597.19;5077378;28;20146;-81
2022/04/25 08:10:19;;;;;;;0.55;0.55;;;;;;;14.47;56.94;98616.41;5092174;28;20055;-83
2022/04/25 08:18:18;;;;;;;0.50;0.50;;;;;;;15.10;54.64;98588.59;5092095;28;20048;-84
2022/04/25 08:20:47;;;;;;;0.50;0.50;;;;;;;15.02;54.04;98598.16;5076822;28;20051;-85
2022/04/25 08:23:21;;;;;;;0.60;0.60;;;;;;;14.99;54.32;98585.16;5098836;28;20071;-83
2022/04/25 08:25:48;;;;;;;0.50;0.50;;;;;;;15.14;54.39;98581.47;5090294;28;20408;-83
2022/04/25 08:28:15;;;;;;;0.60;0.60;;;;;;;15.46;53.19;98564.59;5091918;28;20143;-83
2022/04/25 08:30:42;;;;;;;0.60;0.60;;;;;;;15.72;52.52;98586.13;5093699;28;20506;-82
2022/04/25 08:33:11;;;;;;;0.60;0.60;;;;;;;16.01;51.65;98569.75;5099494;28;20047;-81
2022/04/25 08:35:39;;;;;;;0.60;0.60;;;;;;;16.11;50.83;98547.06;5088683;28;20040;-83
2022/04/25 08:38:06;;;;;;;0.70;0.70;;;;;;;16.46;49.40;98557.47;5070691;28;20045;-85
2022/04/25 08:40:33;;;;;;;0.65;0.65;;;;;;;16.62;47.79;98555.31;5073215;28;20051;-83
2022/04/25 08:43:03;;;;;;;0.70;0.70;;;;;;;16.90;47.91;98560.94;5078812;28;20044;-83
2022/04/25 08:45:32;;;;;;;0.60;0.60;;;;;;;17.49;47.26;98553.09;5040897;28;20093;-83
2022/04/25 08:48:01;;;;;;;0.60;0.60;;;;;;;17.59;45.82;98546.66;5100339;28;20074;-82
2022/04/25 08:50:29;;;;;;;0.60;0.60;;;;;;;17.42;45.61;98536.31;5096869;28;20079;-81
2022/04/25 08:52:57;;;;;;;0.60;0.60;;;;;;;17.59;45.40;98539.28;5079279;28;20093;-82
2022/04/25 08:55:28;;;;;;;0.60;0.60;;;;;;;17.79;43.89;98537.28;5094958;28;20135;-81
2022/04/25 08:57:56;;;;;;;0.60;0.60;;;;;;;18.21;44.65;98549.81;5050607;28;20080;-81
2022/04/25 09:00:24;;;;;;;0.60;0.60;;;;;;;18.71;43.57;98540.78;5112401;28;20101;-81
2022/04/25 09:02:52;;;;;;;0.60;0.60;;;;;;;18.72;42.73;98528.75;5104281;28;20043;-81
2022/04/25 09:05:19;;;;;;;0.60;0.60;;;;;;;18.37;42.31;98531.16;5091458;28;20050;-83
2022/04/25 09:07:46;;;;;;;0.50;0.50;;;;;;;18.60;41.67;98530.06;5109470;27;20052;-82
2022/04/25 09:10:16;;;;;;;0.60;0.60;;;;;;;18.52;41.55;98536.28;5107718;28;20051;-81
2022/04/25 09:12:46;;;;;;;0.60;0.60;;;;;;;18.48;41.67;98516.16;5099978;28;20044;-82
2022/04/25 09:15:19;;;;;;;0.68;0.68;;;;;;;18.42;39.79;98517.38;5114958;28;20487;-82
2022/04/25 09:17:55;;;;;;;0.60;0.60;;;;;;;18.75;39.50;98531.69;5097781;28;20059;-83
2022/04/25 09:20:24;;;;;;;0.70;0.70;;;;;;;19.26;39.32;98540.53;5114557;28;20071;-81
2022/04/25 09:22:52;;;;;;;0.60;0.60;;;;;;;19.70;38.63;98530.66;5114378;28;20054;-81
2022/04/25 09:25:20;;;;;;;0.50;0.50;;;;;;;18.63;39.78;98507.63;5092888;28;20052;-82
2022/04/25 09:28:09;;;;;;;0.50;0.50;;;;;;;18.32;40.80;98518.41;5093164;28;20138;-82
2022/04/25 09:30:37;;;;;;;0.55;0.55;;;;;;;18.46;40.41;98529.34;5093815;28;20044;-82
2022/04/25 09:33:21;;;;;;;0.60;0.60;;;;;;;19.24;40.19;98504.47;5093544;28;20500;-82
2022/04/25 09:35:56;;;;;;;0.50;0.50;;;;;;;19.21;39.43;98507.84;5096063;28;20422;-81
2022/04/25 09:38:31;;;;;;;0.60;0.60;;;;;;;19.45;38.42;98519.25;5093227;28;20059;-82
2022/04/25 09:40:59;;;;;;;0.50;0.50;;;;;;;19.54;38.20;98499.31;5094740;28;20040;-81
2022/04/25 09:43:30;;;;;;;0.60;0.60;;;;;;;19.61;37.75;98507.88;5094483;28;20040;-82
2022/04/25 09:46:02;;;;;;;0.70;0.70;;;;;;;20.14;37.07;98496.00;5093365;28;20525;-82
2022/04/25 09:48:31;;;;;;;0.60;0.60;;;;;;;19.68;37.72;98498.13;5092518;28;20058;-82
2022/04/25 09:51:06;;;;;;;0.50;0.50;;;;;;;19.29;38.36;98507.09;5094259;28;20536;-81
2022/04/25 09:53:51;;;;;;;0.57;0.57;;;;;;;18.90;39.11;98516.84;5094163;28;20073;-82
2022/04/25 09:56:42;;;;;;;0.70;0.70;;;;;;;18.93;39.04;98477.94;5092921;28;20579;-82
2022/04/25 09:59:11;;;;;;;0.60;0.60;;;;;;;19.74;36.71;98507.00;5053844;28;20483;-82
2022/04/25 10:01:40;;;;;;;0.50;0.50;;;;;;;19.94;36.25;98510.28;5054174;28;20510;-82
2022/04/25 10:04:34;;;;;;;0.57;0.57;;;;;;;19.73;36.31;98505.41;5070821;28;20048;-82
2022/04/25 10:07:03;;;;;;;0.50;0.50;;;;;;;19.24;37.12;98504.47;5072205;28;20150;-82
2022/04/25 10:09:32;;;;;;;0.60;0.60;;;;;;;19.52;37.74;98524.25;5070503;28;20581;-82
2022/04/25 10:12:03;;;;;;;0.50;0.50;;;;;;;19.27;38.61;98512.09;5070075;28;20055;-82
2022/04/25 10:14:33;;;;;;;0.50;0.50;;;;;;;19.23;37.90;98494.69;5071210;28;20114;-81
2022/04/25 10:17:00;;;;;;;0.55;0.55;;;;;;;18.93;38.08;98499.00;5039254;28;20076;-81
2022/04/25 10:19:28;;;;;;;0.40;0.40;;;;;;;18.14;38.83;98505.72;5068404;28;20083;-81
2022/04/25 10:21:58;;;;;;;0.50;0.50;;;;;;;17.94;40.12;98496.84;4703195;28;10000164;-83
2022/04/25 10:24:26;;;;;;;0.60;0.60;;;;;;;18.85;39.01;98495.09;5062662;28;20579;-82
2022/04/25 10:26:53;;;;;;;0.50;0.50;;;;;;;19.78;37.74;98502.50;5052510;28;20049;-81
2022/04/25 10:29:27;;;;;;;0.70;0.70;;;;;;;20.16;35.73;98501.16;5064722;28;20048;-82
2022/04/25 10:31:59;;;;;;;0.60;0.60;;;;;;;21.07;34.37;98502.13;5058096;28;20054;-84
2022/04/25 10:35:01;;;;;;;0.70;0.70;;;;;;;21.95;33.35;98493.25;5066998;28;20045;-83
2022/04/25 10:37:33;;;;;;;0.30;0.30;;;;;;;20.30;35.07;98499.88;5011821;28;20155;-83
2022/04/25 10:40:03;;;;;;;0.88;0.88;;;;;;;19.80;35.95;98500.28;5023186;28;20053;-83
2022/04/25 10:45:56;;;;;;;0.40;0.40;;;;;;;20.11;35.38;98478.25;5032283;28;20080;-83
2022/04/25 10:48:24;;;;;;;0.90;0.90;;;;;;;21.25;34.10;98475.47;5029743;28;20053;-82
2022/04/25 10:51:13;;;;;;;0.80;0.80;;;;;;;22.04;31.70;98488.50;5015547;28;20057;-82
2022/04/25 10:54:00;;;;;;;0.45;0.45;;;;;;;20.83;33.18;98465.06;5011203;28;20120;-82
2022/04/25 10:56:28;;;;;;;0.70;0.70;;;;;;;20.87;33.39;98470.72;5016589;28;20496;-83
2022/04/25 10:59:20;;;;;;;0.40;0.40;;;;;;;22.22;31.09;98469.19;5018967;28;20045;-83
2022/04/25 11:01:48;;;;;;;0.70;0.70;;;;;;;21.74;30.23;98464.94;5027796;28;20113;-84
2022/04/25 11:04:15;;;;;;;0.60;0.60;;;;;;;22.66;29.80;98466.88;5053668;28;20029;-83
2022/04/25 11:06:43;;;;;;;0.30;0.30;;;;;;;21.20;31.75;98473.69;5052896;28;20431;-82
2022/04/25 11:09:10;;;;;;;0.70;0.70;;;;;;;20.31;33.32;98484.25;5034076;28;20084;-82
2022/04/25 11:11:53;;;;;;;0.55;0.55;;;;;;;21.06;32.52;98492.28;5015679;28;20053;-82
2022/04/25 11:14:25;;;;;;;0.30;0.30;;;;;;;20.72;33.14;98475.56;5080247;28;20047;-85
2022/04/25 11:17:08;;;;;;;0.30;0.30;;;;;;;19.54;34.37;98480.16;5102567;28;20536;-84
2022/04/25 11:19:48;;;;;;;0.40;0.40;;;;;;;19.77;35.11;98459.81;5091580;28;20056;-85
2022/04/25 11:22:36;;;;;;;0.30;0.30;;;;;;;19.22;35.62;98471.19;5094520;28;20422;-83
2022/04/25 11:25:24;;;;;;;0.30;0.30;;;;;;;18.36;36.94;98461.28;5073291;28;20059;-85
2022/04/25 11:28:01;;;;;;;0.30;0.30;;;;;;;17.97;38.28;98460.75;5061108;28;20586;-85
2022/04/25 11:30:29;;;;;;;0.47;0.47;;;;;;;18.35;37.46;98465.09;5056168;28;20080;-83
2022/04/25 11:33:03;;;;;;;0.40;0.40;;;;;;;18.34;36.71;98455.31;5071019;28;20052;-84
2022/04/25 11:35:30;;;;;;;0.40;0.40;;;;;;;18.14;37.16;98468.28;5068792;28;20076;-83
2022/04/25 11:37:58;;;;;;;0.50;0.50;;;;;;;18.36;37.53;98458.53;5059547;28;20053;-87
2022/04/25 11:40:26;;;;;;;0.43;0.43;;;;;;;19.19;35.44;98449.91;5059402;28;20056;-84
2022/04/25 11:42:54;;;;;;;0.40;0.40;;;;;;;19.14;35.92;98463.72;5073049;28;20491;-84
2022/04/25 11:45:21;;;;;;;0.30;0.30;;;;;;;18.42;37.02;98447.16;5076558;28;20044;-84
2022/04/25 11:47:48;;;;;;;0.40;0.40;;;;;;;18.18;37.21;98441.19;5052238;28;20052;-85
2022/04/25 11:50:19;;;;;;;0.40;0.40;;;;;;;18.20;36.89;98428.03;5061309;28;20076;-85
2022/04/25 11:52:54;;;;;;;0.40;0.40;;;;;;;18.18;36.65;98420.16;5062881;28;20087;-84
2022/04/25 11:55:33;;;;;;;0.50;0.50;;;;;;;18.60;35.69;98452.75;5065393;28;20606;-85
2022/04/25 11:58:00;;;;;;;0.43;0.43;;;;;;;18.60;35.62;98447.28;5059335;28;20484;-87
2022/04/25 12:00:27;;;;;;;0.40;0.40;;;;;;;18.67;35.31;98442.22;5046289;28;20580;-85
2022/04/25 12:03:00;;;;;;;0.50;0.50;;;;;;;18.83;35.11;98435.25;5060894;28;20053;-85
2022/04/25 12:05:30;;;;;;;0.40;0.40;;;;;;;18.89;34.96;98455.09;5065321;28;20064;-85
2022/04/25 12:16:15;;;;;;;0.30;0.30;;;;;;;18.36;35.83;98447.63;5065151;28;20052;-85
2022/04/25 12:18:52;;;;;;;0.30;0.30;;;;;;;17.85;36.43;98465.09;5056752;28;20055;-85
2022/04/25 12:21:20;;;;;;;0.30;0.30;;;;;;;17.56;37.32;98452.56;5056696;28;20060;-84
2022/04/25 12:23:53;;;;;;;0.30;0.30;;;;;;;17.32;37.79;98450.88;5063971;28;20074;-87